sensor_id;sensor_type;location;lat;lon;timestamp;P1;durP1;ratioP1;P2;durP2;ratioP2
8488;SDS011;4281;45.772;12.852;2022-07-12T00:00:24;5.30;;;3.50;;
8488;SDS011;4281;45.772;12.852;2022-07-12T00:02:52;4.93;;;3.03;;
8488;SDS011;4281;45.772;12.852;2022-07-12T00:05:21;4.67;;;2.70;;
8488;SDS011;4281;45.772;12.852;2022-07-12T00:07:51;4.63;;;2.60;;
8488;SDS011;4281;45.772;12.852;2022-07-12T00:10:20;4.03;;;2.80;;
8488;SDS011;4281;45.772;12.852;2022-07-12T00:12:48;2.27;;;1.97;;
8488;SDS011;4281;45.772;12.852;2022-07-12T00:15:17;4.17;;;2.30;;
8488;SDS011;4281;45.772;12.852;2022-07-12T00:17:45;2.20;;;2.00;;
8488;SDS011;4281;45.772;12.852;2022-07-12T00:20:14;3.17;;;2.07;;
8488;SDS011;4281;45.772;12.852;2022-07-12T00:22:42;2.93;;;1.87;;
8488;SDS011;4281;45.772;12.852;2022-07-12T00:25:14;2.03;;;1.83;;
8488;SDS011;4281;45.772;12.852;2022-07-12T00:27:42;3.00;;;1.90;;
8488;SDS011;4281;45.772;12.852;2022-07-12T00:30:11;3.33;;;2.13;;
8488;SDS011;4281;45.772;12.852;2022-07-12T00:32:39;4.20;;;2.20;;
8488;SDS011;4281;45.772;12.852;2022-07-12T00:35:08;5.00;;;2.77;;
8488;SDS011;4281;45.772;12.852;2022-07-12T00:37:36;3.57;;;2.70;;
8488;SDS011;4281;45.772;12.852;2022-07-12T00:40:05;3.00;;;2.67;;
8488;SDS011;4281;45.772;12.852;2022-07-12T00:42:36;3.43;;;2.77;;
8488;SDS011;4281;45.772;12.852;2022-07-12T00:45:06;4.07;;;3.20;;
8488;SDS011;4281;45.772;12.852;2022-07-12T00:47:37;4.27;;;3.10;;
8488;SDS011;4281;45.772;12.852;2022-07-12T00:50:07;3.47;;;2.53;;
8488;SDS011;4281;45.772;12.852;2022-07-12T00:52:37;3.17;;;2.50;;
8488;SDS011;4281;45.772;12.852;2022-07-12T00:55:07;3.30;;;2.00;;
8488;SDS011;4281;45.772;12.852;2022-07-12T00:57:38;4.47;;;2.10;;
8488;SDS011;4281;45.772;12.852;2022-07-12T01:00:10;5.60;;;2.60;;
8488;SDS011;4281;45.772;12.852;2022-07-12T01:02:40;4.90;;;2.47;;
8488;SDS011;4281;45.772;12.852;2022-07-12T01:05:10;4.80;;;2.27;;
8488;SDS011;4281;45.772;12.852;2022-07-12T01:07:38;3.83;;;2.23;;
8488;SDS011;4281;45.772;12.852;2022-07-12T01:10:08;3.30;;;2.53;;
8488;SDS011;4281;45.772;12.852;2022-07-12T01:12:38;2.97;;;2.20;;
8488;SDS011;4281;45.772;12.852;2022-07-12T01:15:07;2.80;;;2.53;;
8488;SDS011;4281;45.772;12.852;2022-07-12T01:17:36;3.03;;;2.23;;
8488;SDS011;4281;45.772;12.852;2022-07-12T01:20:06;3.30;;;2.10;;
8488;SDS011;4281;45.772;12.852;2022-07-12T01:22:36;3.10;;;2.40;;
8488;SDS011;4281;45.772;12.852;2022-07-12T01:25:08;2.67;;;2.30;;
8488;SDS011;4281;45.772;12.852;2022-07-12T01:27:37;3.90;;;2.33;;
8488;SDS011;4281;45.772;12.852;2022-07-12T01:30:06;4.93;;;2.23;;
8488;SDS011;4281;45.772;12.852;2022-07-12T01:32:35;5.50;;;2.20;;
8488;SDS011;4281;45.772;12.852;2022-07-12T01:35:04;3.40;;;2.10;;
8488;SDS011;4281;45.772;12.852;2022-07-12T01:37:34;2.33;;;2.07;;
8488;SDS011;4281;45.772;12.852;2022-07-12T01:40:05;2.80;;;2.10;;
8488;SDS011;4281;45.772;12.852;2022-07-12T01:42:36;4.50;;;2.27;;
8488;SDS011;4281;45.772;12.852;2022-07-12T01:45:06;3.00;;;2.70;;
8488;SDS011;4281;45.772;12.852;2022-07-12T01:47:35;3.93;;;2.70;;
8488;SDS011;4281;45.772;12.852;2022-07-12T01:50:05;2.77;;;2.27;;
8488;SDS011;4281;45.772;12.852;2022-07-12T01:52:34;3.10;;;2.30;;
8488;SDS011;4281;45.772;12.852;2022-07-12T01:55:04;2.97;;;2.47;;
8488;SDS011;4281;45.772;12.852;2022-07-12T01:57:33;3.13;;;2.40;;
8488;SDS011;4281;45.772;12.852;2022-07-12T02:00:04;3.43;;;2.17;;
8488;SDS011;4281;45.772;12.852;2022-07-12T02:02:34;2.33;;;2.10;;
8488;SDS011;4281;45.772;12.852;2022-07-12T02:05:03;2.80;;;2.50;;
8488;SDS011;4281;45.772;12.852;2022-07-12T02:07:32;2.73;;;2.40;;
8488;SDS011;4281;45.772;12.852;2022-07-12T02:10:00;3.27;;;2.50;;
8488;SDS011;4281;45.772;12.852;2022-07-12T02:12:28;3.37;;;2.67;;
8488;SDS011;4281;45.772;12.852;2022-07-12T02:14:57;3.67;;;2.60;;
8488;SDS011;4281;45.772;12.852;2022-07-12T02:17:27;2.87;;;2.67;;
8488;SDS011;4281;45.772;12.852;2022-07-12T02:19:55;2.80;;;2.60;;
8488;SDS011;4281;45.772;12.852;2022-07-12T02:22:23;4.30;;;2.83;;
8488;SDS011;4281;45.772;12.852;2022-07-12T02:24:52;4.63;;;2.50;;
8488;SDS011;4281;45.772;12.852;2022-07-12T02:27:20;2.87;;;2.43;;
8488;SDS011;4281;45.772;12.852;2022-07-12T02:29:49;2.93;;;2.30;;
8488;SDS011;4281;45.772;12.852;2022-07-12T02:32:17;2.50;;;2.30;;
8488;SDS011;4281;45.772;12.852;2022-07-12T02:34:47;2.67;;;2.20;;
8488;SDS011;4281;45.772;12.852;2022-07-12T02:37:15;4.37;;;2.50;;
8488;SDS011;4281;45.772;12.852;2022-07-12T02:39:43;4.27;;;2.50;;
8488;SDS011;4281;45.772;12.852;2022-07-12T02:42:12;3.40;;;2.70;;
8488;SDS011;4281;45.772;12.852;2022-07-12T02:44:40;3.07;;;2.50;;
8488;SDS011;4281;45.772;12.852;2022-07-12T02:47:08;5.70;;;2.73;;
8488;SDS011;4281;45.772;12.852;2022-07-12T02:49:37;5.13;;;2.40;;
8488;SDS011;4281;45.772;12.852;2022-07-12T02:52:07;3.40;;;2.60;;
8488;SDS011;4281;45.772;12.852;2022-07-12T02:54:35;4.07;;;2.60;;
8488;SDS011;4281;45.772;12.852;2022-07-12T02:57:04;3.80;;;2.47;;
8488;SDS011;4281;45.772;12.852;2022-07-12T02:59:32;2.50;;;2.30;;
8488;SDS011;4281;45.772;12.852;2022-07-12T03:02:01;2.50;;;2.10;;
8488;SDS011;4281;45.772;12.852;2022-07-12T03:04:29;3.43;;;2.10;;
8488;SDS011;4281;45.772;12.852;2022-07-12T03:06:58;3.03;;;2.20;;
8488;SDS011;4281;45.772;12.852;2022-07-12T03:09:27;4.27;;;2.40;;
8488;SDS011;4281;45.772;12.852;2022-07-12T03:11:57;2.60;;;2.40;;
8488;SDS011;4281;45.772;12.852;2022-07-12T03:14:25;2.73;;;2.43;;
8488;SDS011;4281;45.772;12.852;2022-07-12T03:16:53;2.80;;;2.00;;
8488;SDS011;4281;45.772;12.852;2022-07-12T03:19:22;2.63;;;2.20;;
8488;SDS011;4281;45.772;12.852;2022-07-12T03:21:50;3.93;;;2.10;;
8488;SDS011;4281;45.772;12.852;2022-07-12T03:24:18;3.47;;;2.33;;
8488;SDS011;4281;45.772;12.852;2022-07-12T03:26:48;2.43;;;2.00;;
8488;SDS011;4281;45.772;12.852;2022-07-12T03:29:17;4.17;;;2.40;;
8488;SDS011;4281;45.772;12.852;2022-07-12T03:31:47;3.17;;;2.30;;
8488;SDS011;4281;45.772;12.852;2022-07-12T03:34:15;2.33;;;2.13;;
8488;SDS011;4281;45.772;12.852;2022-07-12T03:36:43;3.60;;;2.20;;
8488;SDS011;4281;45.772;12.852;2022-07-12T03:39:12;2.57;;;2.07;;
8488;SDS011;4281;45.772;12.852;2022-07-12T03:41:40;2.63;;;2.13;;
8488;SDS011;4281;45.772;12.852;2022-07-12T03:44:10;2.77;;;2.20;;
8488;SDS011;4281;45.772;12.852;2022-07-12T03:46:39;2.80;;;1.83;;
8488;SDS011;4281;45.772;12.852;2022-07-12T03:49:08;2.77;;;2.27;;
8488;SDS011;4281;45.772;12.852;2022-07-12T03:51:36;2.63;;;1.93;;
8488;SDS011;4281;45.772;12.852;2022-07-12T03:54:05;2.50;;;2.00;;
8488;SDS011;4281;45.772;12.852;2022-07-12T03:56:34;2.43;;;1.90;;
8488;SDS011;4281;45.772;12.852;2022-07-12T03:59:21;3.13;;;2.03;;
8488;SDS011;4281;45.772;12.852;2022-07-12T04:01:50;3.37;;;2.30;;
8488;SDS011;4281;45.772;12.852;2022-07-12T04:04:18;3.37;;;1.90;;
8488;SDS011;4281;45.772;12.852;2022-07-12T04:06:47;4.03;;;2.23;;
8488;SDS011;4281;45.772;12.852;2022-07-12T04:09:15;4.67;;;2.10;;
8488;SDS011;4281;45.772;12.852;2022-07-12T04:11:43;4.00;;;2.00;;
8488;SDS011;4281;45.772;12.852;2022-07-12T04:14:12;1.93;;;1.83;;
8488;SDS011;4281;45.772;12.852;2022-07-12T04:16:42;2.20;;;2.00;;
8488;SDS011;4281;45.772;12.852;2022-07-12T04:19:10;6.00;;;2.20;;
8488;SDS011;4281;45.772;12.852;2022-07-12T04:21:39;3.63;;;1.97;;
8488;SDS011;4281;45.772;12.852;2022-07-12T04:24:07;8.17;;;2.00;;
8488;SDS011;4281;45.772;12.852;2022-07-12T04:26:36;1.90;;;1.60;;
8488;SDS011;4281;45.772;12.852;2022-07-12T04:29:04;3.07;;;2.00;;
8488;SDS011;4281;45.772;12.852;2022-07-12T04:31:32;3.73;;;1.77;;
8488;SDS011;4281;45.772;12.852;2022-07-12T04:34:02;2.00;;;1.80;;
8488;SDS011;4281;45.772;12.852;2022-07-12T04:36:30;2.40;;;1.80;;
8488;SDS011;4281;45.772;12.852;2022-07-12T04:38:59;2.27;;;1.97;;
8488;SDS011;4281;45.772;12.852;2022-07-12T04:41:27;5.87;;;1.90;;
8488;SDS011;4281;45.772;12.852;2022-07-12T04:43:56;3.70;;;1.80;;
8488;SDS011;4281;45.772;12.852;2022-07-12T04:46:24;2.23;;;2.03;;
8488;SDS011;4281;45.772;12.852;2022-07-12T04:48:52;2.00;;;1.60;;
8488;SDS011;4281;45.772;12.852;2022-07-12T04:51:23;3.73;;;2.00;;
8488;SDS011;4281;45.772;12.852;2022-07-12T04:53:51;2.00;;;1.80;;
8488;SDS011;4281;45.772;12.852;2022-07-12T04:56:19;2.10;;;1.73;;
8488;SDS011;4281;45.772;12.852;2022-07-12T04:58:48;3.27;;;2.00;;
8488;SDS011;4281;45.772;12.852;2022-07-12T05:01:25;3.53;;;1.97;;
8488;SDS011;4281;45.772;12.852;2022-07-12T05:03:53;2.47;;;1.60;;
8488;SDS011;4281;45.772;12.852;2022-07-12T05:06:23;2.53;;;1.60;;
8488;SDS011;4281;45.772;12.852;2022-07-12T05:08:52;2.63;;;1.70;;
8488;SDS011;4281;45.772;12.852;2022-07-12T05:11:20;4.40;;;1.80;;
8488;SDS011;4281;45.772;12.852;2022-07-12T05:13:49;4.17;;;1.70;;
8488;SDS011;4281;45.772;12.852;2022-07-12T05:16:17;3.90;;;1.67;;
8488;SDS011;4281;45.772;12.852;2022-07-12T05:21:30;3.33;;;1.23;;
8488;SDS011;4281;45.772;12.852;2022-07-12T05:24:00;4.87;;;1.60;;
8488;SDS011;4281;45.772;12.852;2022-07-12T05:26:30;3.00;;;1.70;;
8488;SDS011;4281;45.772;12.852;2022-07-12T05:28:58;3.07;;;1.50;;
8488;SDS011;4281;45.772;12.852;2022-07-12T05:31:27;3.07;;;1.50;;
8488;SDS011;4281;45.772;12.852;2022-07-12T05:33:55;3.67;;;1.30;;
8488;SDS011;4281;45.772;12.852;2022-07-12T05:36:24;2.20;;;1.50;;
8488;SDS011;4281;45.772;12.852;2022-07-12T05:39:13;3.90;;;1.67;;
8488;SDS011;4281;45.772;12.852;2022-07-12T05:41:41;2.63;;;1.63;;
8488;SDS011;4281;45.772;12.852;2022-07-12T05:44:10;4.77;;;1.80;;
8488;SDS011;4281;45.772;12.852;2022-07-12T05:46:38;4.43;;;1.53;;
8488;SDS011;4281;45.772;12.852;2022-07-12T05:49:07;3.47;;;1.47;;
8488;SDS011;4281;45.772;12.852;2022-07-12T05:51:35;5.03;;;1.80;;
8488;SDS011;4281;45.772;12.852;2022-07-12T05:54:23;5.97;;;1.57;;
8488;SDS011;4281;45.772;12.852;2022-07-12T05:56:51;6.87;;;1.70;;
8488;SDS011;4281;45.772;12.852;2022-07-12T05:59:19;4.47;;;1.57;;
8488;SDS011;4281;45.772;12.852;2022-07-12T06:01:48;4.07;;;1.27;;
8488;SDS011;4281;45.772;12.852;2022-07-12T06:04:16;5.20;;;1.40;;
8488;SDS011;4281;45.772;12.852;2022-07-12T06:06:45;3.33;;;1.70;;
8488;SDS011;4281;45.772;12.852;2022-07-12T06:09:20;3.43;;;1.40;;
8488;SDS011;4281;45.772;12.852;2022-07-12T06:11:50;2.80;;;1.40;;
8488;SDS011;4281;45.772;12.852;2022-07-12T06:14:18;2.43;;;1.40;;
8488;SDS011;4281;45.772;12.852;2022-07-12T06:16:47;1.97;;;1.37;;
8488;SDS011;4281;45.772;12.852;2022-07-12T06:19:15;2.80;;;1.50;;
8488;SDS011;4281;45.772;12.852;2022-07-12T06:21:44;3.47;;;1.67;;
8488;SDS011;4281;45.772;12.852;2022-07-12T06:24:12;3.60;;;1.30;;
8488;SDS011;4281;45.772;12.852;2022-07-12T06:26:40;4.07;;;1.30;;
8488;SDS011;4281;45.772;12.852;2022-07-12T06:29:10;3.40;;;1.40;;
8488;SDS011;4281;45.772;12.852;2022-07-12T06:31:38;2.33;;;1.40;;
8488;SDS011;4281;45.772;12.852;2022-07-12T06:34:07;3.77;;;1.20;;
8488;SDS011;4281;45.772;12.852;2022-07-12T06:36:35;4.13;;;1.43;;
8488;SDS011;4281;45.772;12.852;2022-07-12T06:39:04;2.37;;;1.23;;
8488;SDS011;4281;45.772;12.852;2022-07-12T06:41:32;2.50;;;1.20;;
8488;SDS011;4281;45.772;12.852;2022-07-12T06:44:00;1.30;;;1.20;;
8488;SDS011;4281;45.772;12.852;2022-07-12T06:46:30;3.20;;;1.60;;
8488;SDS011;4281;45.772;12.852;2022-07-12T06:48:59;3.93;;;1.60;;
8488;SDS011;4281;45.772;12.852;2022-07-12T06:51:27;4.80;;;1.60;;
8488;SDS011;4281;45.772;12.852;2022-07-12T06:53:56;2.10;;;1.30;;
8488;SDS011;4281;45.772;12.852;2022-07-12T06:56:24;1.60;;;1.20;;
8488;SDS011;4281;45.772;12.852;2022-07-12T06:58:53;2.33;;;1.10;;
8488;SDS011;4281;45.772;12.852;2022-07-12T07:01:21;1.90;;;1.20;;
8488;SDS011;4281;45.772;12.852;2022-07-12T07:03:51;2.70;;;1.30;;
8488;SDS011;4281;45.772;12.852;2022-07-12T07:06:20;2.20;;;1.30;;
8488;SDS011;4281;45.772;12.852;2022-07-12T07:08:48;5.27;;;1.50;;
8488;SDS011;4281;45.772;12.852;2022-07-12T07:11:16;2.67;;;1.27;;
8488;SDS011;4281;45.772;12.852;2022-07-12T07:13:44;2.40;;;1.30;;
8488;SDS011;4281;45.772;12.852;2022-07-12T07:19:13;2.30;;;1.37;;
8488;SDS011;4281;45.772;12.852;2022-07-12T07:21:48;2.87;;;1.13;;
8488;SDS011;4281;45.772;12.852;2022-07-12T07:24:16;1.63;;;1.13;;
8488;SDS011;4281;45.772;12.852;2022-07-12T07:26:44;3.73;;;1.30;;
8488;SDS011;4281;45.772;12.852;2022-07-12T07:29:13;1.93;;;1.20;;
8488;SDS011;4281;45.772;12.852;2022-07-12T07:31:58;2.53;;;1.20;;
8488;SDS011;4281;45.772;12.852;2022-07-12T07:34:28;1.60;;;1.10;;
8488;SDS011;4281;45.772;12.852;2022-07-12T07:36:56;1.53;;;1.20;;
8488;SDS011;4281;45.772;12.852;2022-07-12T07:39:25;1.93;;;1.50;;
8488;SDS011;4281;45.772;12.852;2022-07-12T07:41:53;2.63;;;1.30;;
8488;SDS011;4281;45.772;12.852;2022-07-12T07:44:21;1.70;;;1.43;;
8488;SDS011;4281;45.772;12.852;2022-07-12T07:46:58;2.07;;;1.40;;
8488;SDS011;4281;45.772;12.852;2022-07-12T07:49:28;4.77;;;1.67;;
8488;SDS011;4281;45.772;12.852;2022-07-12T07:51:59;2.37;;;1.60;;
8488;SDS011;4281;45.772;12.852;2022-07-12T07:54:28;2.83;;;1.40;;
8488;SDS011;4281;45.772;12.852;2022-07-12T07:56:56;1.60;;;1.50;;
8488;SDS011;4281;45.772;12.852;2022-07-12T07:59:28;2.67;;;1.60;;
8488;SDS011;4281;45.772;12.852;2022-07-12T08:01:56;2.47;;;1.27;;
8488;SDS011;4281;45.772;12.852;2022-07-12T08:04:25;2.90;;;1.27;;
8488;SDS011;4281;45.772;12.852;2022-07-12T08:06:55;2.67;;;1.40;;
8488;SDS011;4281;45.772;12.852;2022-07-12T08:09:24;3.37;;;1.53;;
8488;SDS011;4281;45.772;12.852;2022-07-12T08:11:53;5.10;;;1.30;;
8488;SDS011;4281;45.772;12.852;2022-07-12T08:14:21;2.73;;;1.50;;
8488;SDS011;4281;45.772;12.852;2022-07-12T08:16:49;2.37;;;1.47;;
8488;SDS011;4281;45.772;12.852;2022-07-12T08:19:18;4.30;;;1.60;;
8488;SDS011;4281;45.772;12.852;2022-07-12T08:21:46;1.87;;;1.50;;
8488;SDS011;4281;45.772;12.852;2022-07-12T08:24:16;2.60;;;1.40;;
8488;SDS011;4281;45.772;12.852;2022-07-12T08:26:44;2.00;;;1.30;;
8488;SDS011;4281;45.772;12.852;2022-07-12T08:29:13;3.37;;;1.80;;
8488;SDS011;4281;45.772;12.852;2022-07-12T08:31:41;3.77;;;1.50;;
8488;SDS011;4281;45.772;12.852;2022-07-12T08:34:09;3.50;;;1.70;;
8488;SDS011;4281;45.772;12.852;2022-07-12T08:36:38;2.00;;;1.43;;
8488;SDS011;4281;45.772;12.852;2022-07-12T08:39:07;3.37;;;1.63;;
8488;SDS011;4281;45.772;12.852;2022-07-12T08:41:37;3.33;;;1.70;;
8488;SDS011;4281;45.772;12.852;2022-07-12T08:44:06;2.67;;;1.20;;
8488;SDS011;4281;45.772;12.852;2022-07-12T08:46:34;2.03;;;1.50;;
8488;SDS011;4281;45.772;12.852;2022-07-12T08:49:05;3.17;;;1.63;;
8488;SDS011;4281;45.772;12.852;2022-07-12T08:51:34;1.70;;;1.43;;
8488;SDS011;4281;45.772;12.852;2022-07-12T08:54:05;2.27;;;1.40;;
8488;SDS011;4281;45.772;12.852;2022-07-12T08:56:37;2.50;;;1.63;;
8488;SDS011;4281;45.772;12.852;2022-07-12T08:59:12;2.53;;;1.50;;
8488;SDS011;4281;45.772;12.852;2022-07-12T09:01:43;1.73;;;1.40;;
8488;SDS011;4281;45.772;12.852;2022-07-12T09:04:14;3.17;;;1.67;;
8488;SDS011;4281;45.772;12.852;2022-07-12T09:06:44;2.20;;;1.40;;
8488;SDS011;4281;45.772;12.852;2022-07-12T09:09:25;2.43;;;1.40;;
8488;SDS011;4281;45.772;12.852;2022-07-12T09:11:56;3.83;;;1.60;;
8488;SDS011;4281;45.772;12.852;2022-07-12T09:14:24;4.90;;;1.60;;
8488;SDS011;4281;45.772;12.852;2022-07-12T09:17:00;3.23;;;1.60;;
8488;SDS011;4281;45.772;12.852;2022-07-12T09:19:31;1.70;;;1.30;;
8488;SDS011;4281;45.772;12.852;2022-07-12T09:22:00;1.50;;;1.40;;
8488;SDS011;4281;45.772;12.852;2022-07-12T09:24:28;2.47;;;1.40;;
8488;SDS011;4281;45.772;12.852;2022-07-12T09:26:59;1.77;;;1.57;;
8488;SDS011;4281;45.772;12.852;2022-07-12T09:29:29;2.13;;;1.50;;
8488;SDS011;4281;45.772;12.852;2022-07-12T09:31:59;2.90;;;1.53;;
8488;SDS011;4281;45.772;12.852;2022-07-12T09:34:55;1.87;;;1.53;;
8488;SDS011;4281;45.772;12.852;2022-07-12T09:37:41;2.00;;;1.50;;
8488;SDS011;4281;45.772;12.852;2022-07-12T09:40:10;2.27;;;1.70;;
8488;SDS011;4281;45.772;12.852;2022-07-12T09:42:40;2.63;;;1.80;;
8488;SDS011;4281;45.772;12.852;2022-07-12T09:45:09;2.87;;;1.70;;
8488;SDS011;4281;45.772;12.852;2022-07-12T09:47:38;2.00;;;1.57;;
8488;SDS011;4281;45.772;12.852;2022-07-12T09:50:07;2.23;;;1.60;;
8488;SDS011;4281;45.772;12.852;2022-07-12T09:52:37;2.87;;;1.60;;
8488;SDS011;4281;45.772;12.852;2022-07-12T09:55:07;2.30;;;1.60;;
8488;SDS011;4281;45.772;12.852;2022-07-12T09:57:39;2.07;;;1.70;;
8488;SDS011;4281;45.772;12.852;2022-07-12T10:00:09;3.10;;;1.70;;
8488;SDS011;4281;45.772;12.852;2022-07-12T10:02:39;3.03;;;1.60;;
8488;SDS011;4281;45.772;12.852;2022-07-12T10:05:08;2.13;;;1.70;;
8488;SDS011;4281;45.772;12.852;2022-07-12T10:07:38;3.90;;;1.80;;
8488;SDS011;4281;45.772;12.852;2022-07-12T10:10:07;2.03;;;1.60;;
8488;SDS011;4281;45.772;12.852;2022-07-12T10:12:36;3.83;;;1.97;;
8488;SDS011;4281;45.772;12.852;2022-07-12T10:15:08;7.23;;;2.00;;
8488;SDS011;4281;45.772;12.852;2022-07-12T10:17:41;2.27;;;1.70;;
8488;SDS011;4281;45.772;12.852;2022-07-12T10:20:15;2.27;;;1.83;;
8488;SDS011;4281;45.772;12.852;2022-07-12T10:22:44;1.87;;;1.60;;
8488;SDS011;4281;45.772;12.852;2022-07-12T10:25:29;2.23;;;1.70;;
8488;SDS011;4281;45.772;12.852;2022-07-12T10:27:59;1.93;;;1.50;;
8488;SDS011;4281;45.772;12.852;2022-07-12T10:30:29;2.30;;;2.10;;
8488;SDS011;4281;45.772;12.852;2022-07-12T10:33:13;2.60;;;1.60;;
8488;SDS011;4281;45.772;12.852;2022-07-12T10:35:57;1.70;;;1.60;;
8488;SDS011;4281;45.772;12.852;2022-07-12T10:38:26;2.03;;;1.90;;
8488;SDS011;4281;45.772;12.852;2022-07-12T10:40:55;3.87;;;2.00;;
8488;SDS011;4281;45.772;12.852;2022-07-12T10:43:25;3.57;;;2.10;;
8488;SDS011;4281;45.772;12.852;2022-07-12T10:46:19;10.40;;;6.67;;
8488;SDS011;4281;45.772;12.852;2022-07-12T10:48:50;13.03;;;8.80;;
8488;SDS011;4281;45.772;12.852;2022-07-12T10:51:20;16.63;;;10.03;;
8488;SDS011;4281;45.772;12.852;2022-07-12T10:53:49;4.27;;;3.00;;
8488;SDS011;4281;45.772;12.852;2022-07-12T10:56:18;1.90;;;1.70;;
8488;SDS011;4281;45.772;12.852;2022-07-12T10:58:55;5.23;;;2.37;;
8488;SDS011;4281;45.772;12.852;2022-07-12T11:01:26;2.03;;;1.87;;
8488;SDS011;4281;45.772;12.852;2022-07-12T11:03:58;4.43;;;2.90;;
8488;SDS011;4281;45.772;12.852;2022-07-12T11:06:34;2.43;;;2.10;;
8488;SDS011;4281;45.772;12.852;2022-07-12T11:09:04;5.27;;;3.17;;
8488;SDS011;4281;45.772;12.852;2022-07-12T11:11:34;4.27;;;2.50;;
8488;SDS011;4281;45.772;12.852;2022-07-12T11:14:10;2.73;;;2.10;;
8488;SDS011;4281;45.772;12.852;2022-07-12T11:16:44;2.40;;;2.10;;
8488;SDS011;4281;45.772;12.852;2022-07-12T11:19:13;5.30;;;2.33;;
8488;SDS011;4281;45.772;12.852;2022-07-12T11:21:43;4.17;;;2.00;;
8488;SDS011;4281;45.772;12.852;2022-07-12T11:24:15;4.03;;;2.47;;
8488;SDS011;4281;45.772;12.852;2022-07-12T11:26:44;1.90;;;1.70;;
8488;SDS011;4281;45.772;12.852;2022-07-12T11:29:13;2.30;;;2.07;;
8488;SDS011;4281;45.772;12.852;2022-07-12T11:31:41;3.07;;;2.23;;
8488;SDS011;4281;45.772;12.852;2022-07-12T11:34:20;4.27;;;2.13;;
8488;SDS011;4281;45.772;12.852;2022-07-12T11:36:50;2.07;;;1.80;;
8488;SDS011;4281;45.772;12.852;2022-07-12T11:39:30;3.30;;;2.00;;
8488;SDS011;4281;45.772;12.852;2022-07-12T11:41:59;2.03;;;1.83;;
8488;SDS011;4281;45.772;12.852;2022-07-12T11:44:40;2.17;;;1.67;;
8488;SDS011;4281;45.772;12.852;2022-07-12T11:47:12;2.43;;;2.00;;
8488;SDS011;4281;45.772;12.852;2022-07-12T11:49:43;1.93;;;1.70;;
8488;SDS011;4281;45.772;12.852;2022-07-12T11:52:13;2.17;;;1.70;;
8488;SDS011;4281;45.772;12.852;2022-07-12T11:54:43;3.13;;;1.80;;
8488;SDS011;4281;45.772;12.852;2022-07-12T11:57:13;1.60;;;1.50;;
8488;SDS011;4281;45.772;12.852;2022-07-12T11:59:42;3.80;;;1.67;;
8488;SDS011;4281;45.772;12.852;2022-07-12T12:02:12;2.30;;;1.70;;
8488;SDS011;4281;45.772;12.852;2022-07-12T12:04:47;2.77;;;1.60;;
8488;SDS011;4281;45.772;12.852;2022-07-12T12:07:17;2.10;;;1.60;;
8488;SDS011;4281;45.772;12.852;2022-07-12T12:12:55;3.17;;;1.50;;
8488;SDS011;4281;45.772;12.852;2022-07-12T12:15:25;1.63;;;1.53;;
8488;SDS011;4281;45.772;12.852;2022-07-12T12:17:56;2.53;;;1.80;;
8488;SDS011;4281;45.772;12.852;2022-07-12T12:20:28;2.00;;;1.50;;
8488;SDS011;4281;45.772;12.852;2022-07-12T12:22:57;3.77;;;1.60;;
8488;SDS011;4281;45.772;12.852;2022-07-12T12:25:27;2.33;;;1.60;;
8488;SDS011;4281;45.772;12.852;2022-07-12T12:27:58;1.60;;;1.43;;
8488;SDS011;4281;45.772;12.852;2022-07-12T12:30:49;2.87;;;1.60;;
8488;SDS011;4281;45.772;12.852;2022-07-12T12:36:16;1.60;;;1.50;;
8488;SDS011;4281;45.772;12.852;2022-07-12T12:38:47;4.03;;;1.50;;
8488;SDS011;4281;45.772;12.852;2022-07-12T12:41:17;3.50;;;1.60;;
8488;SDS011;4281;45.772;12.852;2022-07-12T12:43:56;2.53;;;1.57;;
8488;SDS011;4281;45.772;12.852;2022-07-12T12:46:43;2.60;;;1.60;;
8488;SDS011;4281;45.772;12.852;2022-07-12T12:49:20;2.70;;;1.57;;
8488;SDS011;4281;45.772;12.852;2022-07-12T12:52:12;2.60;;;1.70;;
8488;SDS011;4281;45.772;12.852;2022-07-12T12:54:40;2.83;;;1.70;;
8488;SDS011;4281;45.772;12.852;2022-07-12T12:57:08;3.33;;;1.70;;
8488;SDS011;4281;45.772;12.852;2022-07-12T12:59:37;1.40;;;1.30;;
8488;SDS011;4281;45.772;12.852;2022-07-12T13:02:06;2.30;;;1.60;;
8488;SDS011;4281;45.772;12.852;2022-07-12T13:04:35;3.07;;;1.60;;
8488;SDS011;4281;45.772;12.852;2022-07-12T13:07:05;1.53;;;1.43;;
8488;SDS011;4281;45.772;12.852;2022-07-12T13:09:40;2.07;;;1.40;;
8488;SDS011;4281;45.772;12.852;2022-07-12T13:12:09;1.77;;;1.50;;
8488;SDS011;4281;45.772;12.852;2022-07-12T13:14:37;1.70;;;1.30;;
8488;SDS011;4281;45.772;12.852;2022-07-12T13:17:06;3.00;;;1.67;;
8488;SDS011;4281;45.772;12.852;2022-07-12T13:19:34;4.47;;;1.57;;
8488;SDS011;4281;45.772;12.852;2022-07-12T13:22:05;1.60;;;1.50;;
8488;SDS011;4281;45.772;12.852;2022-07-12T13:24:35;2.90;;;1.50;;
8488;SDS011;4281;45.772;12.852;2022-07-12T13:27:05;2.73;;;1.40;;
8488;SDS011;4281;45.772;12.852;2022-07-12T13:29:34;2.07;;;1.43;;
8488;SDS011;4281;45.772;12.852;2022-07-12T13:32:02;2.57;;;1.53;;
8488;SDS011;4281;45.772;12.852;2022-07-12T13:34:31;3.63;;;1.70;;
8488;SDS011;4281;45.772;12.852;2022-07-12T13:37:00;2.53;;;1.33;;
8488;SDS011;4281;45.772;12.852;2022-07-12T13:39:28;2.23;;;1.30;;
8488;SDS011;4281;45.772;12.852;2022-07-12T13:42:16;1.93;;;1.50;;
8488;SDS011;4281;45.772;12.852;2022-07-12T13:44:44;3.57;;;1.67;;
8488;SDS011;4281;45.772;12.852;2022-07-12T13:47:12;2.20;;;1.33;;
8488;SDS011;4281;45.772;12.852;2022-07-12T13:49:41;1.70;;;1.37;;
8488;SDS011;4281;45.772;12.852;2022-07-12T13:52:09;1.50;;;1.40;;
8488;SDS011;4281;45.772;12.852;2022-07-12T13:54:38;1.93;;;1.40;;
8488;SDS011;4281;45.772;12.852;2022-07-12T13:57:06;2.13;;;1.47;;
8488;SDS011;4281;45.772;12.852;2022-07-12T13:59:37;2.67;;;1.30;;
8488;SDS011;4281;45.772;12.852;2022-07-12T14:02:05;1.80;;;1.30;;
8488;SDS011;4281;45.772;12.852;2022-07-12T14:04:34;2.20;;;1.50;;
8488;SDS011;4281;45.772;12.852;2022-07-12T14:07:02;2.40;;;1.53;;
8488;SDS011;4281;45.772;12.852;2022-07-12T14:09:30;1.40;;;1.30;;
8488;SDS011;4281;45.772;12.852;2022-07-12T14:11:59;1.70;;;1.30;;
8488;SDS011;4281;45.772;12.852;2022-07-12T14:14:29;4.17;;;1.50;;
8488;SDS011;4281;45.772;12.852;2022-07-12T14:17:16;2.27;;;1.40;;
8488;SDS011;4281;45.772;12.852;2022-07-12T14:19:45;3.57;;;1.57;;
8488;SDS011;4281;45.772;12.852;2022-07-12T14:22:13;2.00;;;1.40;;
8488;SDS011;4281;45.772;12.852;2022-07-12T14:24:42;1.57;;;1.43;;
8488;SDS011;4281;45.772;12.852;2022-07-12T14:27:10;2.40;;;1.30;;
8488;SDS011;4281;45.772;12.852;2022-07-12T14:29:38;2.83;;;1.50;;
8488;SDS011;4281;45.772;12.852;2022-07-12T14:32:07;2.80;;;1.40;;
8488;SDS011;4281;45.772;12.852;2022-07-12T14:34:37;1.50;;;1.30;;
8488;SDS011;4281;45.772;12.852;2022-07-12T14:37:05;2.50;;;1.50;;
8488;SDS011;4281;45.772;12.852;2022-07-12T14:39:34;2.03;;;1.37;;
8488;SDS011;4281;45.772;12.852;2022-07-12T14:42:02;1.57;;;1.47;;
8488;SDS011;4281;45.772;12.852;2022-07-12T14:44:31;3.37;;;1.40;;
8488;SDS011;4281;45.772;12.852;2022-07-12T14:46:59;2.77;;;1.50;;
8488;SDS011;4281;45.772;12.852;2022-07-12T14:49:27;2.17;;;1.30;;
8488;SDS011;4281;45.772;12.852;2022-07-12T14:51:57;1.67;;;1.47;;
8488;SDS011;4281;45.772;12.852;2022-07-12T14:54:26;1.83;;;1.20;;
8488;SDS011;4281;45.772;12.852;2022-07-12T14:56:54;2.23;;;1.57;;
8488;SDS011;4281;45.772;12.852;2022-07-12T14:59:22;1.60;;;1.40;;
8488;SDS011;4281;45.772;12.852;2022-07-12T15:01:51;3.47;;;1.40;;
8488;SDS011;4281;45.772;12.852;2022-07-12T15:04:19;2.97;;;1.40;;
8488;SDS011;4281;45.772;12.852;2022-07-12T15:06:48;4.13;;;1.40;;
8488;SDS011;4281;45.772;12.852;2022-07-12T15:09:17;1.93;;;1.30;;
8488;SDS011;4281;45.772;12.852;2022-07-12T15:11:46;2.80;;;1.33;;
8488;SDS011;4281;45.772;12.852;2022-07-12T15:14:14;1.50;;;1.30;;
8488;SDS011;4281;45.772;12.852;2022-07-12T15:16:43;2.47;;;1.30;;
8488;SDS011;4281;45.772;12.852;2022-07-12T15:19:29;2.33;;;1.40;;
8488;SDS011;4281;45.772;12.852;2022-07-12T15:21:57;1.47;;;1.30;;
8488;SDS011;4281;45.772;12.852;2022-07-12T15:24:29;1.60;;;1.50;;
8488;SDS011;4281;45.772;12.852;2022-07-12T15:26:57;1.97;;;1.50;;
8488;SDS011;4281;45.772;12.852;2022-07-12T15:29:29;1.47;;;1.30;;